עמוד ראשי
METAR-TAF:

METAR-TAF

שדות תעופה :

La Ceiba, הונדורס

קו רוחב: 15-44N, קו אורך: 086-52W, גובה: 3מטר

תצפית מזג אוויר נוכחית

הדו"ח נערך לפני 43דקות, בשעה 22:00 UTC
רוח 6קשר מכיוון מזרח/צפון-מזרח
טמפרטורת 28 צלסיוס
לחות 89%
לחץ 1011 hPa
ראות: 4000מטר
עננים פזורים בגובה 1600רגל , קומולוס מיגדלי.
מעונן בגובה 7000רגל
ממטרים במרחב,

METAR: MHLC 252200Z 07006KT 9999 4000W VCSH SCT016TCU OVC070 28/26 Q1011 A2986 NOSIG

זמן: 16:43 (22:43 UTC)

תחזית

הדו"ח נערך לפני 5 שעות ו 43דקות, בשעה 17:00 UTC
תחזית בתוקף מ 25 ב 18 UTC עד 26 ב 18 UTC
רוח 10קשר מכיוון צפון/צפון-מזרח
ראות 10 קילומטר או יותר
עננים פזורים בגובה 2800רגל
זמנית מ -
25 ב 21 UTC עד 26 ב 01 UTC
ראות: 6000מטר
עננים פזורים בגובה 2800רגל , קומולוס מיגדלי.
מעט עננים בגובה 3000רגל , קומולונימבוס.
ממטרי גשם
יעשה מ
26 ב 01 UTC עד 26 ב 03 UTC
רוח 5קשר עם כיוונים משתנים
ראות 10 קילומטר או יותר
מעט עננים בגובה 2800רגל

TAF: MHLC 251700Z 2518/2618 03010KT 9999 SCT028 TX33/2519Z TN25/2612Z TEMPO 2521/2601 6000 SHRA SCT028TCU FEW030CB BECMG 2601/2603 VRB05KT 9999 NSW FEW028

תצפיות ותחזיות מזג אוויר לגבי יותר מ- 4,000 שדות תעופה ברחבי העולם. דוחות METAR ו- TAF.

התחנות הזמינות מסומנות בנקודות צהובות ואדומות על גבי המפה.

העבר את העכבר לנקודה הצבעונית על מנת לראות את שם התחנה.

לאחר מכן, לחץ כדי לראות את תוכן ואת תחזיות מזג האוויר.

כדי לשנות את המפה: לחץ על הכפתורים הירוקים עם הפלוס השחור כדי להתקרב; על הכפתור הירוק עם המקף כדי להתרחק; או בחיצים הירוקים למפות סמוכות.


METAR-TAF: